Time;durP1;ratioP1;P1;durP2;ratioP2;P2;SDS_P1;SDS_P2;PMS_P1;PMS_P2;Temp;Humidity;BMP_temperature;BMP_pressure;BME280_temperature;BME280_humidity;BME280_pressure;Samples;Min_cycle;Max_cycle;Signal;HPM_P1;HPM_P2
2021/05/11 00:01:32;;;;;;;573.45;425.27;;;;;;;;;;5053836;28;20029;-80
2021/05/11 00:03:58;;;;;;;552.20;408.10;;;;;;;;;;5035167;28;20480;-80
2021/05/11 00:06:24;;;;;;;541.72;398.13;;;;;;;;;;5036046;28;20079;-80
2021/05/11 00:08:50;;;;;;;524.55;389.73;;;;;;;;;;5053483;28;20032;-80
2021/05/11 00:11:16;;;;;;;521.17;380.35;;;;;;;;;;5053727;28;20476;-80
2021/05/11 00:13:42;;;;;;;520.35;386.05;;;;;;;;;;5035725;28;20021;-80
2021/05/11 00:16:08;;;;;;;521.63;390.75;;;;;;;;;;5035945;28;20028;-80
2021/05/11 00:18:35;;;;;;;525.72;386.63;;;;;;;;;;5035730;28;20025;-80
2021/05/11 00:21:01;;;;;;;522.03;386.13;;;;;;;;;;5053718;28;20052;-79
2021/05/11 00:23:27;;;;;;;520.20;390.10;;;;;;;;;;5035630;28;20114;-80
2021/05/11 00:25:53;;;;;;;524.90;394.20;;;;;;;;;;5035427;28;20029;-80
2021/05/11 00:28:19;;;;;;;530.50;393.27;;;;;;;;;;5037998;28;20615;-80
2021/05/11 00:30:45;;;;;;;522.65;389.85;;;;;;;;;;5037890;28;20028;-80
2021/05/11 00:33:11;;;;;;;518.15;383.30;;;;;;;;;;5053558;28;20675;-80
2021/05/11 00:35:37;;;;;;;515.72;388.83;;;;;;;;;;5035399;28;20029;-80
2021/05/11 00:38:03;;;;;;;522.92;391.73;;;;;;;;;;5030932;28;20052;-80
2021/05/11 00:40:29;;;;;;;525.20;395.02;;;;;;;;;;5034137;28;20032;-80
2021/05/11 00:42:56;;;;;;;529.10;395.45;;;;;;;;;;5035125;28;20440;-80
2021/05/11 00:45:22;;;;;;;514.80;383.02;;;;;;;;;;5052736;28;20028;-80
2021/05/11 00:47:48;;;;;;;524.45;390.80;;;;;;;;;;5034957;28;20592;-79
2021/05/11 00:50:14;;;;;;;529.60;397.75;;;;;;;;;;5052451;28;20045;-79
2021/05/11 00:52:40;;;;;;;536.13;397.63;;;;;;;;;;5035252;28;20037;-80
2021/05/11 00:55:07;;;;;;;543.10;401.83;;;;;;;;;;5034753;28;20476;-80
2021/05/11 00:57:34;;;;;;;531.33;388.73;;;;;;;;;;5052480;28;20527;-80
2021/05/11 01:00:00;;;;;;;517.00;385.95;;;;;;;;;;5051101;28;20564;-80
2021/05/11 01:02:26;;;;;;;521.42;385.05;;;;;;;;;;5052718;28;20476;-80
2021/05/11 01:04:53;;;;;;;533.00;392.20;;;;;;;;;;5034662;28;20087;-80
2021/05/11 01:07:19;;;;;;;538.65;397.02;;;;;;;;;;5034169;28;20063;-80
2021/05/11 01:09:45;;;;;;;522.47;390.13;;;;;;;;;;5034304;28;20060;-80
2021/05/11 01:12:12;;;;;;;505.33;375.17;;;;;;;;;;5052087;28;20021;-81
2021/05/11 01:14:37;;;;;;;507.30;369.95;;;;;;;;;;5034564;28;20436;-80
2021/05/11 01:17:04;;;;;;;504.17;370.10;;;;;;;;;;5052352;28;20028;-80
2021/05/11 01:19:46;;;;;;;504.33;374.17;;;;;;;;;;5034733;28;20021;-80
2021/05/11 01:24:50;;;;;;;503.42;369.55;;;;;;;;;;5052092;28;20039;-80
2021/05/11 01:27:38;;;;;;;500.65;368.85;;;;;;;;;;5044838;28;20040;-80
2021/05/11 01:49:13;;;;;;;504.23;358.95;;;;;;;;;;5059057;28;20781;-80
2021/05/11 02:09:56;;;;;;;496.58;355.20;;;;;;;;;;5037133;28;20033;-79
2021/05/11 02:24:18;;;;;;;500.50;357.85;;;;;;;;;;5027730;28;20036;-80
2021/05/11 02:26:44;;;;;;;507.27;367.95;;;;;;;;;;5036931;28;20025;-80
2021/05/11 02:29:10;;;;;;;507.60;362.83;;;;;;;;;;5035792;28;20025;-80
2021/05/11 02:31:36;;;;;;;511.42;366.85;;;;;;;;;;5034820;28;20550;-83
2021/05/11 02:34:02;;;;;;;501.70;363.02;;;;;;;;;;5030797;28;20053;-82
2021/05/11 02:36:28;;;;;;;494.63;353.92;;;;;;;;;;5037162;28;20068;-80
2021/05/11 02:38:54;;;;;;;513.53;367.77;;;;;;;;;;5027776;28;20076;-80
2021/05/11 02:41:20;;;;;;;528.10;376.95;;;;;;;;;;5027622;28;20037;-81
2021/05/11 02:43:46;;;;;;;528.78;374.15;;;;;;;;;;5030349;28;20034;-80
2021/05/11 02:46:12;;;;;;;611.15;441.75;;;;;;;;;;5033849;28;20034;-81
2021/05/11 02:48:38;;;;;;;500.83;355.42;;;;;;;;;;5033870;28;20120;-83
2021/05/11 02:51:04;;;;;;;511.83;374.50;;;;;;;;;;5043031;28;20048;-81
2021/05/11 02:53:30;;;;;;;491.92;357.83;;;;;;;;;;5037049;28;20120;-81
2021/05/11 02:55:56;;;;;;;489.30;345.55;;;;;;;;;;5036466;28;20056;-80
2021/05/11 02:58:23;;;;;;;508.05;364.38;;;;;;;;;;5054699;28;20132;-80
2021/05/11 03:00:49;;;;;;;516.30;370.50;;;;;;;;;;5028483;28;20055;-80
2021/05/11 03:03:15;;;;;;;490.65;348.58;;;;;;;;;;5047720;28;20060;-81
2021/05/11 03:05:41;;;;;;;512.70;367.75;;;;;;;;;;5036808;28;20024;-81
2021/05/11 03:08:07;;;;;;;512.08;361.70;;;;;;;;;;5036304;28;20469;-81
2021/05/11 03:10:33;;;;;;;494.10;346.15;;;;;;;;;;5036488;28;20035;-81
2021/05/11 03:12:59;;;;;;;499.70;355.95;;;;;;;;;;5054643;28;20025;-79
2021/05/11 03:15:25;;;;;;;494.40;348.17;;;;;;;;;;5036294;28;20029;-81
2021/05/11 03:17:51;;;;;;;530.80;380.98;;;;;;;;;;5033754;28;20021;-80
2021/05/11 03:20:17;;;;;;;511.33;366.98;;;;;;;;;;5039775;28;20029;-80
2021/05/11 03:22:44;;;;;;;507.48;361.83;;;;;;;;;;5021488;28;20389;-81
2021/05/11 03:25:10;;;;;;;500.30;360.95;;;;;;;;;;5050515;28;20017;-79
2021/05/11 03:27:36;;;;;;;495.73;356.45;;;;;;;;;;5032487;28;20025;-81
2021/05/11 03:30:03;;;;;;;518.67;376.05;;;;;;;;;;5030495;28;20622;-80
2021/05/11 03:32:29;;;;;;;492.45;356.33;;;;;;;;;;5031879;28;20024;-80
2021/05/11 03:34:55;;;;;;;492.88;365.83;;;;;;;;;;5025254;28;20074;-81
2021/05/11 03:37:21;;;;;;;492.27;356.55;;;;;;;;;;5046770;28;20029;-81
2021/05/11 03:39:47;;;;;;;495.63;359.60;;;;;;;;;;5032115;28;20058;-81
2021/05/11 03:42:34;;;;;;;491.00;355.20;;;;;;;;;;5026350;28;20119;-80
2021/05/11 03:45:03;;;;;;;493.17;357.42;;;;;;;;;;5025017;28;20025;-80
2021/05/11 03:47:35;;;;;;;486.98;355.25;;;;;;;;;;5031290;28;20033;-80
2021/05/11 03:50:01;;;;;;;496.45;360.23;;;;;;;;;;5048060;28;20033;-81
2021/05/11 03:52:27;;;;;;;485.65;352.00;;;;;;;;;;5032729;28;20205;-81
2021/05/11 03:54:53;;;;;;;490.35;361.25;;;;;;;;;;5039224;28;20021;-80
2021/05/11 03:57:19;;;;;;;484.52;355.92;;;;;;;;;;5050650;28;20181;-81
2021/05/11 03:59:45;;;;;;;514.63;376.05;;;;;;;;;;5029394;28;20389;-81
2021/05/11 04:02:11;;;;;;;505.35;373.63;;;;;;;;;;5049673;28;20033;-80
2021/05/11 04:04:37;;;;;;;521.83;374.20;;;;;;;;;;5032178;28;20033;-81
2021/05/11 04:07:05;;;;;;;481.90;353.55;;;;;;;;;;5031231;28;20473;-81
2021/05/11 04:09:36;;;;;;;491.73;354.35;;;;;;;;;;5035208;28;20052;-80
2021/05/11 04:12:19;;;;;;;487.77;353.30;;;;;;;;;;5046121;28;20320;-80
2021/05/11 04:17:29;;;;;;;481.88;348.25;;;;;;;;;;5048744;28;20035;-80
2021/05/11 04:19:55;;;;;;;489.45;356.98;;;;;;;;;;5031101;28;20025;-80
2021/05/11 04:22:21;;;;;;;488.63;360.05;;;;;;;;;;5030680;28;20029;-80
2021/05/11 04:24:47;;;;;;;485.58;357.23;;;;;;;;;;5048901;28;20037;-80
2021/05/11 04:27:13;;;;;;;487.25;357.27;;;;;;;;;;5031537;28;20028;-80
2021/05/11 04:29:39;;;;;;;479.20;354.50;;;;;;;;;;5027292;28;20059;-80
2021/05/11 04:32:05;;;;;;;480.27;356.30;;;;;;;;;;5030589;28;20435;-80
2021/05/11 04:34:31;;;;;;;487.98;355.15;;;;;;;;;;5031888;28;20111;-80
2021/05/11 04:36:57;;;;;;;486.08;358.33;;;;;;;;;;5030350;28;20120;-80
2021/05/11 04:39:23;;;;;;;487.48;359.42;;;;;;;;;;5031102;28;20331;-80
2021/05/11 04:41:49;;;;;;;487.95;364.75;;;;;;;;;;5043249;28;20056;-80
2021/05/11 04:44:17;;;;;;;486.67;365.20;;;;;;;;;;5031715;28;20350;-80
2021/05/11 04:46:48;;;;;;;484.73;358.05;;;;;;;;;;5030278;28;20078;-80
2021/05/11 04:49:14;;;;;;;482.35;360.70;;;;;;;;;;5039261;28;20021;-80
2021/05/11 04:51:40;;;;;;;487.92;362.15;;;;;;;;;;5029328;28;20617;-80
2021/05/11 04:54:07;;;;;;;486.95;367.67;;;;;;;;;;5049057;28;20037;-80
2021/05/11 04:56:33;;;;;;;485.88;360.65;;;;;;;;;;5031173;28;20040;-81
2021/05/11 04:58:59;;;;;;;492.17;364.98;;;;;;;;;;5028406;28;20025;-81
2021/05/11 05:01:25;;;;;;;488.08;357.33;;;;;;;;;;5027046;28;20053;-81
2021/05/11 05:03:53;;;;;;;490.08;354.98;;;;;;;;;;5052573;28;20017;-81
2021/05/11 05:06:19;;;;;;;481.98;352.48;;;;;;;;;;5034865;28;20472;-80
2021/05/11 05:08:45;;;;;;;493.30;357.08;;;;;;;;;;5034417;28;20028;-82
2021/05/11 05:11:11;;;;;;;484.33;351.80;;;;;;;;;;5046151;28;20033;-80
2021/05/11 05:13:37;;;;;;;495.02;354.73;;;;;;;;;;5034711;28;20025;-81
2021/05/11 05:16:03;;;;;;;500.92;367.55;;;;;;;;;;5034721;28;20504;-81
2021/05/11 05:18:30;;;;;;;492.75;359.13;;;;;;;;;;5034196;28;20025;-81
2021/05/11 05:20:56;;;;;;;485.45;356.55;;;;;;;;;;5034623;28;20128;-80
2021/05/11 05:23:28;;;;;;;494.30;358.58;;;;;;;;;;5020571;28;20021;-81
2021/05/11 05:26:00;;;;;;;496.55;365.60;;;;;;;;;;5015233;28;20037;-80
2021/05/11 05:28:26;;;;;;;488.50;359.58;;;;;;;;;;5029157;28;20036;-80
2021/05/11 05:30:53;;;;;;;494.50;361.90;;;;;;;;;;5033180;28;20032;-80
2021/05/11 05:33:19;;;;;;;506.23;372.45;;;;;;;;;;5035033;28;20021;-80
2021/05/11 05:35:45;;;;;;;508.08;370.40;;;;;;;;;;5047996;28;20028;-81
2021/05/11 05:38:11;;;;;;;499.92;368.10;;;;;;;;;;5056272;28;20063;-81
2021/05/11 05:40:40;;;;;;;497.58;367.10;;;;;;;;;;5052388;28;20275;-80
2021/05/11 05:43:09;;;;;;;499.75;363.45;;;;;;;;;;5052386;28;20120;-81
2021/05/11 05:45:35;;;;;;;517.40;380.85;;;;;;;;;;5034467;28;20021;-81
2021/05/11 05:48:02;;;;;;;516.03;375.00;;;;;;;;;;5034065;28;20032;-81
2021/05/11 05:50:30;;;;;;;520.45;384.88;;;;;;;;;;5034286;28;20021;-81
2021/05/11 05:53:01;;;;;;;532.50;384.00;;;;;;;;;;5033995;28;20538;-81
2021/05/11 05:55:27;;;;;;;521.90;377.20;;;;;;;;;;5034272;28;20029;-82
2021/05/11 05:57:53;;;;;;;533.20;383.27;;;;;;;;;;5034194;28;20055;-83
2021/05/11 06:00:20;;;;;;;552.50;381.77;;;;;;;;;;5032168;28;20385;-82
2021/05/11 06:02:47;;;;;;;531.55;388.77;;;;;;;;;;5040185;28;20021;-80
2021/05/11 06:05:14;;;;;;;524.88;381.02;;;;;;;;;;5042532;28;20052;-78
2021/05/11 06:07:40;;;;;;;525.78;379.90;;;;;;;;;;5021647;28;20037;-81
2021/05/11 06:10:07;;;;;;;525.45;373.25;;;;;;;;;;5029157;28;20396;-79
2021/05/11 06:12:41;;;;;;;518.45;371.70;;;;;;;;;;5045560;28;20340;-78
2021/05/11 06:17:36;;;;;;;525.97;377.90;;;;;;;;;;5046589;28;20029;-80
2021/05/11 06:20:03;;;;;;;517.47;373.48;;;;;;;;;;5025443;28;20025;-79
2021/05/11 06:22:29;;;;;;;516.40;372.38;;;;;;;;;;5046330;28;20021;-77
2021/05/11 06:24:55;;;;;;;512.00;370.05;;;;;;;;;;5055253;28;20032;-78
2021/05/11 06:27:21;;;;;;;512.85;373.80;;;;;;;;;;5049500;28;20029;-79
2021/05/11 06:29:48;;;;;;;511.92;361.60;;;;;;;;;;5042285;28;20136;-77
2021/05/11 06:32:14;;;;;;;512.78;371.88;;;;;;;;;;5037834;28;20052;-79
2021/05/11 06:35:04;;;;;;;515.67;375.83;;;;;;;;;;5034135;28;20485;-79
2021/05/11 06:37:27;;;;;;;517.03;371.95;;;;;;;;;;5044384;28;20039;-81
2021/05/11 06:39:53;;;;;;;512.70;375.88;;;;;;;;;;5020331;28;20033;-81
2021/05/11 06:42:22;;;;;;;509.70;379.40;;;;;;;;;;5027967;28;20033;-80
2021/05/11 06:55:00;;;;;;;508.73;376.27;;;;;;;;;;5045117;28;20041;-81
2021/05/11 06:57:27;;;;;;;509.02;377.45;;;;;;;;;;5020287;28;20629;-78
2021/05/11 06:59:53;;;;;;;514.88;381.90;;;;;;;;;;5036189;28;20017;-80
2021/05/11 07:02:19;;;;;;;515.58;386.15;;;;;;;;;;5037275;28;20111;-81
2021/05/11 07:04:51;;;;;;;509.63;391.95;;;;;;;;;;5037474;28;20021;-78
2021/05/11 07:07:17;;;;;;;508.90;383.40;;;;;;;;;;5055132;28;20032;-80
2021/05/11 07:14:35;;;;;;;505.42;387.48;;;;;;;;;;5054203;28;20078;-81
2021/05/11 07:17:01;;;;;;;508.80;391.70;;;;;;;;;;5037239;28;20018;-79
2021/05/11 07:19:28;;;;;;;507.63;391.40;;;;;;;;;;5036721;28;20032;-79
2021/05/11 07:21:54;;;;;;;509.15;397.52;;;;;;;;;;5031958;28;20025;-79
2021/05/11 07:24:25;;;;;;;514.85;407.73;;;;;;;;;;5036032;28;20044;-80
2021/05/11 07:32:02;;;;;;;517.00;413.92;;;;;;;;;;5054554;28;20472;-85
2021/05/11 07:34:29;;;;;;;511.10;409.25;;;;;;;;;;5050579;28;20021;-83
2021/05/11 07:36:55;;;;;;;508.60;403.65;;;;;;;;;;5030782;28;20025;-80
2021/05/11 07:39:23;;;;;;;510.50;407.80;;;;;;;;;;5030465;28;20036;-84
2021/05/11 07:41:49;;;;;;;508.60;408.92;;;;;;;;;;5034537;28;20566;-81
2021/05/11 07:44:15;;;;;;;513.88;404.20;;;;;;;;;;5035877;28;20059;-82
2021/05/11 07:47:29;;;;;;;506.00;405.52;;;;;;;;;;5035439;28;20029;-82
2021/05/11 07:52:20;;;;;;;510.65;411.75;;;;;;;;;;5053637;28;20048;-82
2021/05/11 08:03:21;;;;;;;513.60;421.15;;;;;;;;;;5052845;28;20075;-83
2021/05/11 08:16:46;;;;;;;511.25;415.35;;;;;;;;;;5045187;28;20071;-78
2021/05/11 08:29:54;;;;;;;506.15;406.30;;;;;;;;;;5050893;28;20122;-80
2021/05/11 08:32:20;;;;;;;508.85;410.95;;;;;;;;;;5032724;28;20047;-84
2021/05/11 08:34:47;;;;;;;509.63;414.77;;;;;;;;;;5031891;28;20063;-80
2021/05/11 08:37:16;;;;;;;506.02;408.35;;;;;;;;;;5047797;28;20017;-82
2021/05/11 08:39:43;;;;;;;505.27;415.60;;;;;;;;;;5046583;28;20033;-82
2021/05/11 08:42:13;;;;;;;509.55;419.88;;;;;;;;;;5032281;28;20017;-85
2021/05/11 08:44:39;;;;;;;504.90;413.13;;;;;;;;;;5033786;28;20031;-81
2021/05/11 08:47:06;;;;;;;506.85;416.05;;;;;;;;;;5029758;28;20053;-80
2021/05/11 08:49:32;;;;;;;508.30;420.48;;;;;;;;;;5029661;28;20044;-81
2021/05/11 08:54:45;;;;;;;378.48;313.65;;;;;;;;;;5019243;28;20377;-82
2021/05/11 09:05:30;;;;;;;509.27;414.58;;;;;;;;;;5010888;28;20033;-83
2021/05/11 09:08:16;;;;;;;511.05;423.42;;;;;;;;;;5020459;28;20029;-79
2021/05/11 09:27:07;;;;;;;516.88;420.48;;;;;;;;;;5022008;28;20037;-82
2021/05/11 10:31:29;;;;;;;513.45;420.63;;;;;;;;;;5053785;28;20044;-82
2021/05/11 10:48:22;;;;;;;550.92;493.00;;;;;;;;;;5050921;28;20108;-88
2021/05/11 10:50:48;;;;;;;575.83;516.50;;;;;;;;;;5029839;28;20026;-87
2021/05/11 10:53:39;;;;;;;592.47;532.65;;;;;;;;;;5033704;28;20041;-88
2021/05/11 10:56:37;;;;;;;597.97;539.35;;;;;;;;;;5048004;28;20025;-82
2021/05/11 10:59:13;;;;;;;601.80;542.95;;;;;;;;;;5033048;28;20031;-85
2021/05/11 11:01:41;;;;;;;576.25;518.50;;;;;;;;;;5054606;28;20040;-83
2021/05/11 11:04:08;;;;;;;558.97;501.00;;;;;;;;;;5053239;28;20396;-84
2021/05/11 11:06:53;;;;;;;552.75;495.00;;;;;;;;;;5036328;28;20094;-84
2021/05/11 11:09:19;;;;;;;555.35;496.73;;;;;;;;;;5033795;28;20025;-85
2021/05/11 11:11:46;;;;;;;573.10;512.50;;;;;;;;;;5031563;28;20083;-90
2021/05/11 11:14:13;;;;;;;581.40;520.35;;;;;;;;;;5032739;28;20025;-89
2021/05/11 11:16:39;;;;;;;569.22;508.48;;;;;;;;;;5058736;28;20028;-86
2021/05/11 11:19:08;;;;;;;555.63;495.42;;;;;;;;;;5039226;28;20112;-91
2021/05/11 11:24:32;;;;;;;556.20;495.25;;;;;;;;;;5040455;28;20108;-86
2021/05/11 11:26:58;;;;;;;562.92;501.40;;;;;;;;;;5056275;28;20025;-89
2021/05/11 11:29:27;;;;;;;565.13;503.30;;;;;;;;;;5049142;28;20130;-89
2021/05/11 11:31:54;;;;;;;638.65;570.40;;;;;;;;;;5045549;28;20025;-91
2021/05/11 11:34:21;;;;;;;625.08;557.03;;;;;;;;;;5057628;28;21922;-87
2021/05/11 11:36:48;;;;;;;653.97;583.50;;;;;;;;;;5045179;28;20029;-85
2021/05/11 11:39:19;;;;;;;632.90;565.15;;;;;;;;;;5032307;28;20025;-83
2021/05/11 11:41:46;;;;;;;640.47;571.95;;;;;;;;;;5022671;28;20029;-81
2021/05/11 11:44:18;;;;;;;631.17;562.20;;;;;;;;;;5029687;28;20120;-81
2021/05/11 11:46:45;;;;;;;596.03;530.38;;;;;;;;;;5050913;28;20099;-82
2021/05/11 11:49:18;;;;;;;621.83;553.83;;;;;;;;;;5034831;28;20049;-82
2021/05/11 11:51:44;;;;;;;604.05;537.03;;;;;;;;;;5042229;28;20463;-86
2021/05/11 11:54:28;;;;;;;584.33;515.75;;;;;;;;;;5028855;28;20364;-87
2021/05/11 11:59:32;;;;;;;583.60;514.70;;;;;;;;;;5047740;28;20029;-82
2021/05/11 12:02:00;;;;;;;585.67;514.60;;;;;;;;;;5035829;28;20484;-84
2021/05/11 12:04:27;;;;;;;570.10;488.67;;;;;;;;;;5034720;28;20116;-81
2021/05/11 12:06:53;;;;;;;567.47;478.80;;;;;;;;;;5030248;28;20037;-81
2021/05/11 12:09:20;;;;;;;565.17;474.45;;;;;;;;;;5050290;28;20033;-84
2021/05/11 12:11:47;;;;;;;540.50;448.20;;;;;;;;;;5032821;28;20666;-82
2021/05/11 12:14:16;;;;;;;548.70;454.90;;;;;;;;;;5033324;28;20051;-88
2021/05/11 12:16:43;;;;;;;540.83;444.75;;;;;;;;;;5033247;28;20025;-87
2021/05/11 12:19:15;;;;;;;536.50;444.20;;;;;;;;;;5033802;28;20079;-91
2021/05/11 12:21:50;;;;;;;545.70;450.55;;;;;;;;;;5052641;28;20059;-88
2021/05/11 12:24:16;;;;;;;535.63;443.00;;;;;;;;;;5051696;28;20380;-81
2021/05/11 12:26:43;;;;;;;556.53;461.27;;;;;;;;;;5053048;28;20035;-83
2021/05/11 12:29:21;;;;;;;546.42;447.05;;;;;;;;;;5068997;28;20090;-84
2021/05/11 12:31:50;;;;;;;580.47;474.70;;;;;;;;;;5070983;28;20036;-81
2021/05/11 12:34:21;;;;;;;567.67;460.05;;;;;;;;;;5053529;28;20021;-82
2021/05/11 12:36:50;;;;;;;562.20;451.05;;;;;;;;;;5052855;28;20024;-81
2021/05/11 12:42:22;;;;;;;546.45;425.23;;;;;;;;;;5050793;28;20083;-86
2021/05/11 12:45:01;;;;;;;563.45;439.70;;;;;;;;;;5033118;28;20035;-82
2021/05/11 12:47:29;;;;;;;558.03;441.60;;;;;;;;;;4989606;28;20038;-78
2021/05/11 12:49:57;;;;;;;545.22;423.60;;;;;;;;;;4990036;28;20549;-81
2021/05/11 12:52:29;;;;;;;547.35;425.00;;;;;;;;;;4989340;28;20038;-78
2021/05/11 12:54:55;;;;;;;559.70;437.92;;;;;;;;;;4973144;28;20023;-82
2021/05/11 12:57:32;;;;;;;534.88;414.33;;;;;;;;;;4972878;28;20117;-85
2021/05/11 13:13:46;;;;;;;530.63;408.35;;;;;;;;;;4989937;28;20069;-83
2021/05/11 13:16:19;;;;;;;535.75;412.98;;;;;;;;;;4972370;28;20058;-81
2021/05/11 13:21:40;;;;;;;534.88;414.40;;;;;;;;;;5050268;28;20407;-82
2021/05/11 13:27:04;;;;;;;534.35;408.08;;;;;;;;;;5047056;28;20485;-82
2021/05/11 13:35:00;;;;;;;535.38;409.00;;;;;;;;;;5033901;28;20029;-82
2021/05/11 13:37:27;;;;;;;476.85;362.85;;;;;;;;;;5032794;28;20025;-85
2021/05/11 13:39:53;;;;;;;473.83;362.15;;;;;;;;;;5055961;28;20384;-86
2021/05/11 13:42:19;;;;;;;480.52;369.52;;;;;;;;;;5055590;28;20028;-84
2021/05/11 13:44:45;;;;;;;477.17;375.02;;;;;;;;;;5038961;28;20029;-82
2021/05/11 13:47:11;;;;;;;483.30;377.02;;;;;;;;;;5051747;28;20044;-82
2021/05/11 13:49:37;;;;;;;489.75;381.13;;;;;;;;;;5049672;28;20488;-82
2021/05/11 13:52:03;;;;;;;479.05;371.48;;;;;;;;;;5035209;28;20499;-83
2021/05/11 13:54:29;;;;;;;480.10;374.77;;;;;;;;;;5032753;28;20048;-82
2021/05/11 14:05:12;;;;;;;495.45;382.67;;;;;;;;;;5050372;28;20036;-82
2021/05/11 14:07:38;;;;;;;507.90;385.77;;;;;;;;;;5035290;28;20032;-84
2021/05/11 14:10:05;;;;;;;537.17;409.63;;;;;;;;;;5035430;28;20018;-84
2021/05/11 14:12:31;;;;;;;511.02;395.17;;;;;;;;;;5034927;28;20029;-83
2021/05/11 14:14:57;;;;;;;511.25;392.73;;;;;;;;;;5034930;28;20032;-82
2021/05/11 14:17:23;;;;;;;508.02;396.90;;;;;;;;;;5032492;28;20103;-81
2021/05/11 14:19:51;;;;;;;507.00;384.30;;;;;;;;;;5030998;28;20589;-79
2021/05/11 14:22:19;;;;;;;547.90;420.38;;;;;;;;;;5059631;28;20051;-83
2021/05/11 14:24:45;;;;;;;519.97;403.63;;;;;;;;;;5052255;28;20020;-84
2021/05/11 14:27:11;;;;;;;519.80;398.92;;;;;;;;;;5052055;28;20028;-82
2021/05/11 14:29:37;;;;;;;510.33;388.85;;;;;;;;;;5049943;28;20029;-81
2021/05/11 14:32:03;;;;;;;516.92;396.00;;;;;;;;;;5052049;28;20108;-82
2021/05/11 14:34:29;;;;;;;511.55;392.85;;;;;;;;;;5045191;28;20021;-83
2021/05/11 14:36:55;;;;;;;513.42;395.90;;;;;;;;;;5036137;28;20484;-85
2021/05/11 14:39:21;;;;;;;501.35;379.10;;;;;;;;;;5043789;28;20028;-85
2021/05/11 14:41:53;;;;;;;505.70;388.70;;;;;;;;;;5053388;28;20051;-83
2021/05/11 14:44:19;;;;;;;501.95;382.98;;;;;;;;;;5035559;28;20060;-86
2021/05/11 14:46:50;;;;;;;513.22;392.27;;;;;;;;;;5035511;28;20100;-84
2021/05/11 14:49:16;;;;;;;503.20;384.33;;;;;;;;;;5034851;28;20116;-85
2021/05/11 14:51:42;;;;;;;510.05;392.85;;;;;;;;;;5052104;28;20037;-85
2021/05/11 14:54:09;;;;;;;505.55;389.90;;;;;;;;;;5036737;28;20032;-85
2021/05/11 14:56:39;;;;;;;510.20;399.67;;;;;;;;;;5068701;28;20017;-85
2021/05/11 14:59:05;;;;;;;511.60;396.20;;;;;;;;;;5074788;28;20021;-83
2021/05/11 15:01:31;;;;;;;506.52;397.92;;;;;;;;;;5073422;28;20358;-82
2021/05/11 15:03:59;;;;;;;516.85;404.55;;;;;;;;;;5054397;28;20490;-81
2021/05/11 15:06:25;;;;;;;520.90;404.30;;;;;;;;;;5033623;28;20028;-81
2021/05/11 15:08:51;;;;;;;529.10;416.52;;;;;;;;;;5034620;28;20033;-79
2021/05/11 15:11:17;;;;;;;527.35;418.95;;;;;;;;;;5028794;28;20021;-80
2021/05/11 15:13:44;;;;;;;513.85;400.65;;;;;;;;;;5017698;28;20060;-79
2021/05/11 15:16:11;;;;;;;534.20;424.08;;;;;;;;;;5017651;28;20026;-79
2021/05/11 15:18:37;;;;;;;532.78;423.15;;;;;;;;;;5026699;28;20025;-79
2021/05/11 15:21:03;;;;;;;519.00;413.45;;;;;;;;;;5055146;28;20078;-79
2021/05/11 15:23:29;;;;;;;518.50;410.75;;;;;;;;;;5054753;28;20476;-78
2021/05/11 15:25:54;;;;;;;526.83;422.08;;;;;;;;;;5037003;28;20079;-79
2021/05/11 15:28:20;;;;;;;521.05;414.85;;;;;;;;;;5036689;28;20024;-78
2021/05/11 15:30:46;;;;;;;531.15;423.40;;;;;;;;;;5033201;28;20064;-78
2021/05/11 15:33:13;;;;;;;521.92;416.20;;;;;;;;;;5054076;28;20079;-78
2021/05/11 15:35:38;;;;;;;516.58;407.20;;;;;;;;;;5033566;28;20033;-78
2021/05/11 15:38:05;;;;;;;516.15;412.05;;;;;;;;;;5021785;28;20025;-78
2021/05/11 15:40:36;;;;;;;514.95;414.13;;;;;;;;;;5030954;28;20029;-78
2021/05/11 15:43:03;;;;;;;512.63;404.13;;;;;;;;;;5036294;28;20052;-78
2021/05/11 15:45:29;;;;;;;508.92;403.92;;;;;;;;;;5035963;28;20021;-78
2021/05/11 15:47:56;;;;;;;512.10;410.23;;;;;;;;;;5054302;28;20044;-78
2021/05/11 15:50:25;;;;;;;517.03;408.88;;;;;;;;;;5054549;28;20017;-78
2021/05/11 15:52:52;;;;;;;516.85;410.98;;;;;;;;;;5054099;28;20049;-78
2021/05/11 15:55:18;;;;;;;517.60;411.38;;;;;;;;;;5032466;28;20053;-78
2021/05/11 15:57:44;;;;;;;515.08;411.20;;;;;;;;;;5032007;28;20033;-78
2021/05/11 16:00:11;;;;;;;524.42;426.80;;;;;;;;;;5029705;28;20035;-78
2021/05/11 16:02:37;;;;;;;520.65;411.02;;;;;;;;;;5033254;28;20033;-78
2021/05/11 16:05:05;;;;;;;519.17;412.73;;;;;;;;;;5029057;28;20353;-78
2021/05/11 16:07:31;;;;;;;514.20;410.95;;;;;;;;;;5041640;28;20017;-78
2021/05/11 16:09:57;;;;;;;522.42;419.88;;;;;;;;;;5029021;28;20112;-78
2021/05/11 16:12:23;;;;;;;516.78;410.63;;;;;;;;;;5051266;28;20036;-78
2021/05/11 16:14:50;;;;;;;519.95;419.48;;;;;;;;;;5024664;28;20116;-78
2021/05/11 16:17:16;;;;;;;522.50;419.00;;;;;;;;;;5042818;28;20021;-79
2021/05/11 16:19:42;;;;;;;526.83;420.88;;;;;;;;;;5035803;28;20520;-78
2021/05/11 16:22:08;;;;;;;522.67;424.63;;;;;;;;;;5035651;28;20113;-77
2021/05/11 16:24:34;;;;;;;522.00;414.58;;;;;;;;;;5029215;28;20477;-77
2021/05/11 16:27:00;;;;;;;526.90;420.17;;;;;;;;;;5035206;28;20059;-78
2021/05/11 16:29:26;;;;;;;523.13;414.13;;;;;;;;;;5034448;28;20473;-78
2021/05/11 16:31:52;;;;;;;527.45;420.45;;;;;;;;;;5053667;28;20110;-79
2021/05/11 16:34:19;;;;;;;523.72;414.40;;;;;;;;;;5041647;28;20025;-79
2021/05/11 16:36:45;;;;;;;526.72;420.80;;;;;;;;;;5050412;28;20017;-79
2021/05/11 16:39:11;;;;;;;519.65;414.77;;;;;;;;;;5040335;28;20036;-79
2021/05/11 16:41:37;;;;;;;508.88;399.98;;;;;;;;;;5033665;28;20104;-79
2021/05/11 16:44:03;;;;;;;513.45;408.95;;;;;;;;;;5016053;28;20030;-79
2021/05/11 16:46:29;;;;;;;511.05;406.13;;;;;;;;;;5039513;28;20025;-79
2021/05/11 16:48:55;;;;;;;516.53;411.20;;;;;;;;;;5052566;28;20025;-79
2021/05/11 16:51:21;;;;;;;516.97;408.30;;;;;;;;;;5051949;28;20025;-79
2021/05/11 16:53:47;;;;;;;521.13;411.25;;;;;;;;;;5040249;28;20112;-79
2021/05/11 16:56:14;;;;;;;515.45;402.85;;;;;;;;;;5032112;28;20052;-79
2021/05/11 16:58:39;;;;;;;519.28;406.92;;;;;;;;;;5028557;28;20017;-79
2021/05/11 17:01:06;;;;;;;517.78;410.38;;;;;;;;;;5018703;28;20029;-79
2021/05/11 17:03:38;;;;;;;514.28;405.92;;;;;;;;;;5048175;28;20496;-79
2021/05/11 17:06:05;;;;;;;507.48;402.05;;;;;;;;;;5018265;28;20517;-78
2021/05/11 17:08:30;;;;;;;517.03;406.48;;;;;;;;;;5034436;28;20464;-79
2021/05/11 17:10:56;;;;;;;509.70;401.52;;;;;;;;;;5034472;28;20167;-79
2021/05/11 17:13:22;;;;;;;507.63;401.40;;;;;;;;;;5035520;28;20028;-79
2021/05/11 17:15:52;;;;;;;508.55;404.70;;;;;;;;;;5026671;28;20527;-79
2021/05/11 17:18:18;;;;;;;520.53;409.15;;;;;;;;;;5018802;28;20766;-78
2021/05/11 17:20:45;;;;;;;512.03;407.27;;;;;;;;;;5034514;28;20029;-78
2021/05/11 17:23:11;;;;;;;518.58;405.17;;;;;;;;;;5052651;28;20075;-78
2021/05/11 17:25:37;;;;;;;509.65;402.25;;;;;;;;;;5034931;28;20048;-78
2021/05/11 17:28:05;;;;;;;514.03;403.65;;;;;;;;;;5035014;28;20683;-78
2021/05/11 17:30:31;;;;;;;513.72;405.85;;;;;;;;;;5051454;28;20104;-78
2021/05/11 17:33:02;;;;;;;515.90;400.33;;;;;;;;;;5034445;28;20029;-78
2021/05/11 17:35:28;;;;;;;514.95;400.73;;;;;;;;;;5033317;28;20057;-78
2021/05/11 17:37:54;;;;;;;524.60;412.45;;;;;;;;;;5029519;28;20056;-78
2021/05/11 17:40:21;;;;;;;517.38;409.48;;;;;;;;;;5034536;28;20025;-78
2021/05/11 17:42:47;;;;;;;513.78;401.20;;;;;;;;;;5034140;28;20696;-78
2021/05/11 17:45:15;;;;;;;511.67;401.33;;;;;;;;;;5037558;28;20404;-78
2021/05/11 17:47:51;;;;;;;514.90;404.85;;;;;;;;;;5054959;28;20469;-78
2021/05/11 17:50:18;;;;;;;511.05;402.55;;;;;;;;;;5052786;28;20431;-78
2021/05/11 17:52:44;;;;;;;517.00;404.52;;;;;;;;;;5034214;28;20045;-78
2021/05/11 17:55:10;;;;;;;515.00;407.23;;;;;;;;;;5034579;28;20025;-78
2021/05/11 17:57:36;;;;;;;512.63;403.60;;;;;;;;;;5034611;28;20099;-78
2021/05/11 18:00:04;;;;;;;512.17;402.35;;;;;;;;;;5033468;28;20491;-78
2021/05/11 18:02:30;;;;;;;509.25;396.63;;;;;;;;;;5034365;28;20021;-78
2021/05/11 18:04:56;;;;;;;513.30;402.75;;;;;;;;;;5034777;28;20028;-78
2021/05/11 18:07:22;;;;;;;511.58;400.75;;;;;;;;;;5034471;28;20067;-78
2021/05/11 18:09:48;;;;;;;511.98;405.63;;;;;;;;;;5037187;28;20514;-78